• Join FlightAware (Why Join?)
  • Login
  • US Flag 
06:56AM EST


 

Airport Tracker/Info


-or-


 

Live Flight TrackerFlight Track Log ✈ EJA114 ✈ 23-Jun-2013 ✈ KICT - KDPA

Flight Track Log - Related Links

Times and Time Zones

All times are in EDT time to prevent confusion due to time zone crossing. See the EJA114 flight status page for this flight to view local times or setup timezone preferences in your user account.

Time Position Orientation Groundspeed Altitude Reporting Facility
EDT Latitude Longitude Course Direction KTS MPH feet Rate Location/Type
01:54PM 37.5847 -97.4364 184° South 182 209 5,400  Level Kansas City Center
01:55PM 37.5753 -97.4100 114° Southeast 208 239 6,200 1,860 Climbing Kansas City Center
01:56PM 37.6053 -97.3258 66° East 285 328 8,400 2,340 Climbing Kansas City Center
01:57PM 37.6664 -97.2119 56° Northeast 326 375 11,100 2,220 Climbing Kansas City Center
01:58PM 37.7236 -97.1067 55° Northeast 358 412 13,100 1,920 Climbing Kansas City Center
01:59PM 37.7833 -96.9978 55° Northeast 375 432 15,100 1,800 Climbing Kansas City Center
02:00PM 37.8417 -96.8853 57° Northeast 383 441 17,000 1,920 Climbing Kansas City Center
02:01PM 37.9100 -96.7522 57° Northeast 377 434 19,200 1,740 Climbing Kansas City Center
02:02PM 37.9603 -96.6358 61° Northeast 377 434 20,700 1,440 Climbing Kansas City Center
02:03PM 38.0125 -96.5156 61° Northeast 387 445 22,200 1,200 Climbing Kansas City Center
02:04PM 38.0658 -96.3931 61° Northeast 396 456 23,200 960 Climbing Kansas City Center
02:05PM 38.1197 -96.2667 62° Northeast 405 466 24,300 1,140 Climbing Kansas City Center
02:06PM 38.1850 -96.1161 61° Northeast 413 475 25,600 1,080 Climbing Kansas City Center
02:07PM 38.2375 -95.9933 61° Northeast 413 475 26,600 960 Climbing Kansas City Center
02:08PM 38.2906 -95.8694 61° Northeast 417 480 27,700 1,020 Climbing Kansas City Center
02:09PM 38.3511 -95.7258 62° Northeast 413 475 28,800 900 Climbing Kansas City Center
02:10PM 38.4039 -95.6003 62° Northeast 419 482 29,600 720 Climbing Kansas City Center
02:11PM 38.4658 -95.4525 62° Northeast 424 488 30,300 660 Climbing Kansas City Center
02:12PM 38.5186 -95.3231 62° Northeast 429 494 31,000 780 Climbing Kansas City Center
02:13PM 38.5428 -95.1581 79° East 426 490 32,000 840 Climbing Kansas City Center
02:14PM 38.5583 -95.0172 82° East 422 486 32,800 780 Climbing Kansas City Center
02:15PM 38.5744 -94.8536 83° East 419 482 33,700 960 Climbing Kansas City Center
02:16PM 38.5883 -94.7161 83° East 412 474 34,800 600 Climbing Kansas City Center
02:17PM 38.6039 -94.5586 83° East 403 464 35,000 60 Climbing Kansas City Center
02:18PM 38.6172 -94.4164 83° East 417 480 35,000  Level Kansas City Center
02:19PM 38.6328 -94.2467 83° East 430 495 35,000  Level Kansas City Center
02:20PM 38.6478 -94.0986 83° East 437 503 35,000  Level Kansas City Center
02:21PM 38.6650 -93.9217 83° East 447 514 35,000  Level Kansas City Center
02:22PM 38.6772 -93.7722 84° East 444 511 35,000  Level Kansas City Center
02:23PM 38.6936 -93.6122 82° East 442 509 35,000  Level Kansas City Center
02:25PM 38.7086 -93.4556 83° East 443 510 35,000  Level Kansas City Center
02:26PM 38.7253 -93.2711 83° East 436 502 35,000  Level Kansas City Center
02:27PM 38.7381 -93.1189 84° East 431 496 35,000  Level Kansas City Center
02:28PM 38.7497 -92.9689 84° East 426 490 35,000  Level Kansas City Center
02:29PM 38.7628 -92.8194 84° East 423 487 35,000  Level Kansas City Center
02:30PM 38.7750 -92.6675 84° East 424 488 35,000  Level Kansas City Center
02:31PM 38.7878 -92.5142 84° East 428 493 35,000  Level Kansas City Center
02:32PM 38.8000 -92.3600 84° East 430 495 35,000  Level Kansas City Center
02:33PM 38.8356 -92.2181 72° East 420 483 35,000  Level Kansas City Center
02:34PM 38.9322 -92.0892 46° Northeast 420 483 35,000  Level Kansas City Center
02:35PM 39.0225 -91.9933 40° Northeast 421 484 35,000  Level Kansas City Center
02:36PM 39.1053 -91.8883 45° Northeast 420 483 35,000  Level Kansas City Center
02:37PM 39.1733 -91.7639 55° Northeast 420 483 35,000  Level Kansas City Center
02:38PM 39.2433 -91.6417 53° Northeast 422 486 35,000  Level Kansas City Center
02:39PM 39.3158 -91.5183 53° Northeast 427 491 35,000  Level Kansas City Center
02:40PM 39.3861 -91.3958 53° Northeast 426 490 35,000  Level Kansas City Center
02:41PM 39.4678 -91.2825 47° Northeast 428 493 35,000 -780 Level Kansas City Center
02:42PM 39.5733 -91.1461 45° Northeast 440 506 33,400 -1,560 Descending Kansas City Center
02:43PM 39.6611 -91.0300 46° Northeast 444 511 31,800 -1,200 Descending Kansas City Center
02:44PM 39.7500 -90.9222 43° Northeast 440 506 31,000 -420 Descending Kansas City Center
02:45PM 39.8372 -90.8175 43° Northeast 442 509 31,000  Level Kansas City Center
02:46PM 39.9303 -90.7078 42° Northeast 449 517 31,000  Level Kansas City Center
02:47PM 40.0431 -90.5700 43° Northeast 459 528 31,000  Level Kansas City Center
02:48PM 40.1381 -90.4567 42° Northeast 463 533 31,000  Level Kansas City Center
02:49PM 40.2328 -90.3439 42° Northeast 461 531 31,000  Level Kansas City Center
02:50PM 40.3258 -90.2278 44° Northeast 461 531 31,000 -360 Level Kansas City Center
02:51PM 40.3997 -90.1353 44° Northeast 461 531 30,400 -1,200 Descending Chicago Center
02:52PM 40.4897 -90.0258 43° Northeast 451 519 28,900 -1,500 Descending Chicago Center
02:53PM 40.5794 -89.9122 44° Northeast 452 520 27,400 -2,520 Descending Chicago Center
02:54PM 40.6939 -89.7689 43° Northeast 473 544 23,800 -3,360 Descending Chicago Center
02:55PM 40.7917 -89.6567 41° Northeast 463 533 20,600 -3,000 Descending Chicago Center
02:56PM 40.8744 -89.5528 43° Northeast 423 487 17,700 -2,640 Descending Chicago Center
02:57PM 40.9508 -89.4564 44° Northeast 403 464 15,100 -1,740 Descending Chicago Center
02:58PM 41.0317 -89.3550 43° Northeast 401 461 14,100 -1,680 Descending Chicago Center
02:59PM 41.1275 -89.2347 43° Northeast 397 457 11,700 -1,500 Descending Chicago Center
03:00PM 41.2064 -89.1350 44° Northeast 385 443 11,000 -360 Descending Chicago Center
03:01PM 41.2836 -89.0361 44° Northeast 386 444 11,000 -480 Level Chicago Center
03:02PM 41.3639 -88.9636 34° Northeast 352 405 10,100 -1,320 Descending Chicago Center
03:04PM 41.4364 -88.9042 32° Northeast 311 358 8,300 -1,260 Descending Chicago Center
03:05PM 41.4842 -88.8244 51° Northeast 278 320 7,600 -1,020 Descending Chicago Center
03:06PM 41.5469 -88.7228 50° Northeast 291 335 6,200 -1,200 Descending Chicago Center
03:07PM 41.6008 -88.6350 51° Northeast 300 345 5,200 -900 Descending Chicago Center
03:08PM 41.6575 -88.5589 45° Northeast 295 339 4,400 -1,140 Descending Chicago Center
03:09PM 41.7161 -88.4872 42° Northeast 289 333 2,900 -720 Descending Chicago Center
03:10PM 41.7636 -88.4286 43° Northeast 263 303 3,000  Climbing Chicago Center
03:11PM 41.8075 -88.3739 43° Northeast 231 266 3,000 -360 Level Chicago Center
03:12PM 41.8739 -88.3206 31° Northeast 233 268 2,300 -360 Descending Chicago Center
03:13PM 41.9275 -88.2992 17° North 216 249 2,300 -120 Level Chicago Center
03:14PM 41.9669 -88.2711 28° Northeast 195 224 2,100 -300 Descending Chicago Center
03:15PM 41.9422 -88.2419 139° Southeast 153 176 1,700 -480 Descending Chicago Center
03:16PM 41.9047 -88.2383 176° South 139 160 1,200 -540 Descending Chicago Center